sensor_id;sensor_type;location;lat;lon;timestamp;temperature;humidity
15013;DHT22;7603;49.432;11.418;2023-04-08T00:00:05;4.30;99.90
15013;DHT22;7603;49.432;11.418;2023-04-08T00:02:32;4.30;99.90
15013;DHT22;7603;49.432;11.418;2023-04-08T00:04:58;4.30;99.90
15013;DHT22;7603;49.432;11.418;2023-04-08T00:07:23;4.20;99.90
15013;DHT22;7603;49.432;11.418;2023-04-08T00:09:49;4.20;99.90
15013;DHT22;7603;49.432;11.418;2023-04-08T00:12:15;4.20;99.90
15013;DHT22;7603;49.432;11.418;2023-04-08T00:14:40;4.10;99.90
15013;DHT22;7603;49.432;11.418;2023-04-08T00:17:06;4.00;99.90
15013;DHT22;7603;49.432;11.418;2023-04-08T00:19:32;3.90;99.90
15013;DHT22;7603;49.432;11.418;2023-04-08T00:21:59;3.80;99.90
15013;DHT22;7603;49.432;11.418;2023-04-08T00:24:24;3.60;99.90
15013;DHT22;7603;49.432;11.418;2023-04-08T00:26:51;3.50;99.90
15013;DHT22;7603;49.432;11.418;2023-04-08T00:29:16;3.30;99.90
15013;DHT22;7603;49.432;11.418;2023-04-08T00:31:42;3.20;99.90
15013;DHT22;7603;49.432;11.418;2023-04-08T00:34:07;3.10;99.90
15013;DHT22;7603;49.432;11.418;2023-04-08T00:36:33;3.00;99.90
15013;DHT22;7603;49.432;11.418;2023-04-08T00:39:00;2.90;99.90
15013;DHT22;7603;49.432;11.418;2023-04-08T00:41:26;2.80;99.90
15013;DHT22;7603;49.432;11.418;2023-04-08T00:43:52;2.80;99.90
15013;DHT22;7603;49.432;11.418;2023-04-08T00:46:18;2.70;99.90
15013;DHT22;7603;49.432;11.418;2023-04-08T00:48:44;2.70;99.90
15013;DHT22;7603;49.432;11.418;2023-04-08T00:51:10;2.60;99.90
15013;DHT22;7603;49.432;11.418;2023-04-08T00:53:36;2.60;99.90
15013;DHT22;7603;49.432;11.418;2023-04-08T00:56:02;2.60;99.90
15013;DHT22;7603;49.432;11.418;2023-04-08T00:58:28;2.60;99.90
15013;DHT22;7603;49.432;11.418;2023-04-08T01:01:02;2.60;99.90
15013;DHT22;7603;49.432;11.418;2023-04-08T01:06:29;2.70;99.90
15013;DHT22;7603;49.432;11.418;2023-04-08T01:08:58;2.80;99.90
15013;DHT22;7603;49.432;11.418;2023-04-08T01:11:26;2.80;99.90
15013;DHT22;7603;49.432;11.418;2023-04-08T01:13:53;2.80;99.90
15013;DHT22;7603;49.432;11.418;2023-04-08T01:16:21;2.90;99.90
15013;DHT22;7603;49.432;11.418;2023-04-08T01:18:48;2.90;99.90
15013;DHT22;7603;49.432;11.418;2023-04-08T01:21:15;3.00;99.90
15013;DHT22;7603;49.432;11.418;2023-04-08T01:24:17;3.00;99.90
15013;DHT22;7603;49.432;11.418;2023-04-08T01:26:44;3.10;99.90
15013;DHT22;7603;49.432;11.418;2023-04-08T01:29:11;3.10;99.90
15013;DHT22;7603;49.432;11.418;2023-04-08T01:31:39;3.10;99.90
15013;DHT22;7603;49.432;11.418;2023-04-08T01:34:06;3.10;99.90
15013;DHT22;7603;49.432;11.418;2023-04-08T01:36:33;3.10;99.90
15013;DHT22;7603;49.432;11.418;2023-04-08T01:39:02;3.10;99.90
15013;DHT22;7603;49.432;11.418;2023-04-08T01:41:31;3.10;99.90
15013;DHT22;7603;49.432;11.418;2023-04-08T01:43:58;3.10;99.90
15013;DHT22;7603;49.432;11.418;2023-04-08T01:46:24;3.10;99.90
15013;DHT22;7603;49.432;11.418;2023-04-08T01:48:50;3.10;99.90
15013;DHT22;7603;49.432;11.418;2023-04-08T01:51:16;3.10;99.90
15013;DHT22;7603;49.432;11.418;2023-04-08T01:53:42;3.10;99.90
15013;DHT22;7603;49.432;11.418;2023-04-08T01:56:11;3.10;99.90
15013;DHT22;7603;49.432;11.418;2023-04-08T01:58:41;3.10;99.90
15013;DHT22;7603;49.432;11.418;2023-04-08T02:01:11;3.10;99.90
15013;DHT22;7603;49.432;11.418;2023-04-08T02:03:41;3.20;99.90
15013;DHT22;7603;49.432;11.418;2023-04-08T02:06:07;3.20;99.90
15013;DHT22;7603;49.432;11.418;2023-04-08T02:08:36;3.20;99.90
15013;DHT22;7603;49.432;11.418;2023-04-08T02:11:02;3.20;99.90
15013;DHT22;7603;49.432;11.418;2023-04-08T02:13:29;3.20;99.90
15013;DHT22;7603;49.432;11.418;2023-04-08T02:16:15;3.20;99.90
15013;DHT22;7603;49.432;11.418;2023-04-08T02:18:44;3.20;99.90
15013;DHT22;7603;49.432;11.418;2023-04-08T02:21:14;3.20;99.90
15013;DHT22;7603;49.432;11.418;2023-04-08T02:23:41;3.20;99.90
15013;DHT22;7603;49.432;11.418;2023-04-08T02:26:14;3.20;99.90
15013;DHT22;7603;49.432;11.418;2023-04-08T02:28:41;3.20;99.90
15013;DHT22;7603;49.432;11.418;2023-04-08T02:31:11;3.20;99.90
15013;DHT22;7603;49.432;11.418;2023-04-08T02:33:39;3.20;99.90
15013;DHT22;7603;49.432;11.418;2023-04-08T02:36:06;3.30;99.90
15013;DHT22;7603;49.432;11.418;2023-04-08T02:38:32;3.30;99.90
15013;DHT22;7603;49.432;11.418;2023-04-08T02:40:57;3.40;99.90
15013;DHT22;7603;49.432;11.418;2023-04-08T02:43:24;3.40;99.90
15013;DHT22;7603;49.432;11.418;2023-04-08T02:45:59;3.40;99.90
15013;DHT22;7603;49.432;11.418;2023-04-08T02:48:27;3.50;99.90
15013;DHT22;7603;49.432;11.418;2023-04-08T02:50:53;3.50;99.90
15013;DHT22;7603;49.432;11.418;2023-04-08T02:53:19;3.50;99.90
15013;DHT22;7603;49.432;11.418;2023-04-08T02:55:44;3.50;99.90
15013;DHT22;7603;49.432;11.418;2023-04-08T02:58:10;3.50;99.90
15013;DHT22;7603;49.432;11.418;2023-04-08T03:00:35;3.60;99.90
15013;DHT22;7603;49.432;11.418;2023-04-08T03:03:04;3.60;99.90
15013;DHT22;7603;49.432;11.418;2023-04-08T03:05:30;3.60;99.90
15013;DHT22;7603;49.432;11.418;2023-04-08T03:07:56;3.60;99.90
15013;DHT22;7603;49.432;11.418;2023-04-08T03:10:22;3.60;99.90
15013;DHT22;7603;49.432;11.418;2023-04-08T03:12:47;3.70;99.90
15013;DHT22;7603;49.432;11.418;2023-04-08T03:15:13;3.60;99.90
15013;DHT22;7603;49.432;11.418;2023-04-08T03:17:38;3.60;99.90
15013;DHT22;7603;49.432;11.418;2023-04-08T03:20:04;3.60;99.90
15013;DHT22;7603;49.432;11.418;2023-04-08T03:22:31;3.50;99.90
15013;DHT22;7603;49.432;11.418;2023-04-08T03:24:57;3.50;99.90
15013;DHT22;7603;49.432;11.418;2023-04-08T03:27:23;3.50;99.90
15013;DHT22;7603;49.432;11.418;2023-04-08T03:29:48;3.50;99.90
15013;DHT22;7603;49.432;11.418;2023-04-08T03:32:14;3.50;99.90
15013;DHT22;7603;49.432;11.418;2023-04-08T03:34:40;3.40;99.90
15013;DHT22;7603;49.432;11.418;2023-04-08T03:37:05;3.50;99.90
15013;DHT22;7603;49.432;11.418;2023-04-08T03:39:32;3.40;99.90
15013;DHT22;7603;49.432;11.418;2023-04-08T03:41:57;3.40;99.90
15013;DHT22;7603;49.432;11.418;2023-04-08T03:44:25;3.40;99.90
15013;DHT22;7603;49.432;11.418;2023-04-08T03:46:51;3.40;99.90
15013;DHT22;7603;49.432;11.418;2023-04-08T03:49:17;3.40;99.90
15013;DHT22;7603;49.432;11.418;2023-04-08T03:51:42;3.40;99.90
15013;DHT22;7603;49.432;11.418;2023-04-08T03:54:08;3.40;99.90
15013;DHT22;7603;49.432;11.418;2023-04-08T03:56:34;3.30;99.90
15013;DHT22;7603;49.432;11.418;2023-04-08T03:58:59;3.30;99.90
15013;DHT22;7603;49.432;11.418;2023-04-08T04:01:25;3.30;99.90
15013;DHT22;7603;49.432;11.418;2023-04-08T04:03:50;3.30;99.90
15013;DHT22;7603;49.432;11.418;2023-04-08T04:06:16;3.30;99.90
15013;DHT22;7603;49.432;11.418;2023-04-08T04:08:41;3.30;99.90
15013;DHT22;7603;49.432;11.418;2023-04-08T04:11:07;3.20;99.90
15013;DHT22;7603;49.432;11.418;2023-04-08T04:13:33;3.20;99.90
15013;DHT22;7603;49.432;11.418;2023-04-08T04:15:58;3.20;99.90
15013;DHT22;7603;49.432;11.418;2023-04-08T04:18:24;3.20;99.90
15013;DHT22;7603;49.432;11.418;2023-04-08T04:20:49;3.20;99.90
15013;DHT22;7603;49.432;11.418;2023-04-08T04:23:15;3.30;99.90
15013;DHT22;7603;49.432;11.418;2023-04-08T04:25:41;3.30;99.90
15013;DHT22;7603;49.432;11.418;2023-04-08T04:28:07;3.40;99.90
15013;DHT22;7603;49.432;11.418;2023-04-08T04:30:36;3.50;99.90
15013;DHT22;7603;49.432;11.418;2023-04-08T04:33:03;3.50;99.90
15013;DHT22;7603;49.432;11.418;2023-04-08T04:35:28;3.60;99.90
15013;DHT22;7603;49.432;11.418;2023-04-08T04:37:54;3.70;99.90
15013;DHT22;7603;49.432;11.418;2023-04-08T04:40:19;3.70;99.90
15013;DHT22;7603;49.432;11.418;2023-04-08T04:42:45;3.80;99.90
15013;DHT22;7603;49.432;11.418;2023-04-08T04:45:11;3.90;99.90
15013;DHT22;7603;49.432;11.418;2023-04-08T04:47:36;3.90;99.90
15013;DHT22;7603;49.432;11.418;2023-04-08T04:50:02;4.00;99.90
15013;DHT22;7603;49.432;11.418;2023-04-08T04:52:28;4.00;99.90
15013;DHT22;7603;49.432;11.418;2023-04-08T04:54:53;4.10;99.90
15013;DHT22;7603;49.432;11.418;2023-04-08T04:57:19;4.10;99.90
15013;DHT22;7603;49.432;11.418;2023-04-08T04:59:45;4.10;99.90
15013;DHT22;7603;49.432;11.418;2023-04-08T05:02:10;4.20;99.90
15013;DHT22;7603;49.432;11.418;2023-04-08T05:04:36;4.20;99.90
15013;DHT22;7603;49.432;11.418;2023-04-08T05:07:01;4.30;99.90
15013;DHT22;7603;49.432;11.418;2023-04-08T05:09:28;4.30;99.90
15013;DHT22;7603;49.432;11.418;2023-04-08T05:11:54;4.40;99.90
15013;DHT22;7603;49.432;11.418;2023-04-08T05:14:20;4.40;99.90
15013;DHT22;7603;49.432;11.418;2023-04-08T05:16:45;4.40;99.90
15013;DHT22;7603;49.432;11.418;2023-04-08T05:19:11;4.50;99.90
15013;DHT22;7603;49.432;11.418;2023-04-08T05:21:36;4.50;99.90
15013;DHT22;7603;49.432;11.418;2023-04-08T05:24:02;4.50;99.90
15013;DHT22;7603;49.432;11.418;2023-04-08T05:26:27;4.60;99.90
15013;DHT22;7603;49.432;11.418;2023-04-08T05:28:53;4.60;99.90
15013;DHT22;7603;49.432;11.418;2023-04-08T05:31:19;4.70;99.90
15013;DHT22;7603;49.432;11.418;2023-04-08T05:33:45;4.70;99.90
15013;DHT22;7603;49.432;11.418;2023-04-08T05:36:12;4.80;99.90
15013;DHT22;7603;49.432;11.418;2023-04-08T05:38:38;4.80;99.90
15013;DHT22;7603;49.432;11.418;2023-04-08T05:41:05;4.80;99.90
15013;DHT22;7603;49.432;11.418;2023-04-08T05:43:32;4.90;99.90
15013;DHT22;7603;49.432;11.418;2023-04-08T05:45:58;4.90;99.90
15013;DHT22;7603;49.432;11.418;2023-04-08T05:48:24;4.90;99.90
15013;DHT22;7603;49.432;11.418;2023-04-08T05:50:49;4.90;99.90
15013;DHT22;7603;49.432;11.418;2023-04-08T05:53:15;4.90;99.90
15013;DHT22;7603;49.432;11.418;2023-04-08T05:55:41;4.90;99.90
15013;DHT22;7603;49.432;11.418;2023-04-08T05:58:07;4.90;99.90
15013;DHT22;7603;49.432;11.418;2023-04-08T06:00:32;4.80;99.90
15013;DHT22;7603;49.432;11.418;2023-04-08T06:02:58;4.80;99.90
15013;DHT22;7603;49.432;11.418;2023-04-08T06:05:24;4.80;99.90
15013;DHT22;7603;49.432;11.418;2023-04-08T06:07:50;4.80;99.90
15013;DHT22;7603;49.432;11.418;2023-04-08T06:10:15;4.80;99.90
15013;DHT22;7603;49.432;11.418;2023-04-08T06:12:41;4.80;99.90
15013;DHT22;7603;49.432;11.418;2023-04-08T06:15:07;4.80;99.90
15013;DHT22;7603;49.432;11.418;2023-04-08T06:17:37;4.80;99.90
15013;DHT22;7603;49.432;11.418;2023-04-08T06:20:04;4.80;99.90
15013;DHT22;7603;49.432;11.418;2023-04-08T06:22:30;4.80;99.90
15013;DHT22;7603;49.432;11.418;2023-04-08T06:24:55;4.90;99.90
15013;DHT22;7603;49.432;11.418;2023-04-08T06:27:21;4.90;99.90
15013;DHT22;7603;49.432;11.418;2023-04-08T06:29:47;5.00;99.90
15013;DHT22;7603;49.432;11.418;2023-04-08T06:32:13;5.10;99.90
15013;DHT22;7603;49.432;11.418;2023-04-08T06:34:39;5.20;99.90
15013;DHT22;7603;49.432;11.418;2023-04-08T06:37:05;5.20;99.90
15013;DHT22;7603;49.432;11.418;2023-04-08T06:39:31;5.40;99.90
15013;DHT22;7603;49.432;11.418;2023-04-08T06:41:57;5.50;99.90
15013;DHT22;7603;49.432;11.418;2023-04-08T06:44:23;5.70;99.90
15013;DHT22;7603;49.432;11.418;2023-04-08T06:46:48;5.80;99.90
15013;DHT22;7603;49.432;11.418;2023-04-08T06:49:14;6.00;99.90
15013;DHT22;7603;49.432;11.418;2023-04-08T06:51:40;6.00;99.90
15013;DHT22;7603;49.432;11.418;2023-04-08T06:54:05;6.00;99.90
15013;DHT22;7603;49.432;11.418;2023-04-08T06:56:31;6.00;99.90
15013;DHT22;7603;49.432;11.418;2023-04-08T06:58:56;6.10;99.90
15013;DHT22;7603;49.432;11.418;2023-04-08T07:01:22;6.10;99.90
15013;DHT22;7603;49.432;11.418;2023-04-08T07:03:49;6.10;99.90
15013;DHT22;7603;49.432;11.418;2023-04-08T07:06:15;6.10;99.90
15013;DHT22;7603;49.432;11.418;2023-04-08T07:08:41;6.10;99.90
15013;DHT22;7603;49.432;11.418;2023-04-08T07:11:06;6.10;99.90
15013;DHT22;7603;49.432;11.418;2023-04-08T07:13:32;6.10;99.90
15013;DHT22;7603;49.432;11.418;2023-04-08T07:15:58;6.10;99.90
15013;DHT22;7603;49.432;11.418;2023-04-08T07:18:24;6.10;99.90
15013;DHT22;7603;49.432;11.418;2023-04-08T07:20:51;6.20;99.90
15013;DHT22;7603;49.432;11.418;2023-04-08T07:23:18;6.20;99.90
15013;DHT22;7603;49.432;11.418;2023-04-08T07:25:44;6.30;99.90
15013;DHT22;7603;49.432;11.418;2023-04-08T07:28:11;6.30;99.90
15013;DHT22;7603;49.432;11.418;2023-04-08T07:30:36;6.30;99.90
15013;DHT22;7603;49.432;11.418;2023-04-08T07:33:02;6.30;99.90
15013;DHT22;7603;49.432;11.418;2023-04-08T07:35:28;6.30;99.90
15013;DHT22;7603;49.432;11.418;2023-04-08T07:37:54;6.30;99.90
15013;DHT22;7603;49.432;11.418;2023-04-08T07:40:19;6.30;99.90
15013;DHT22;7603;49.432;11.418;2023-04-08T07:42:46;6.20;99.90
15013;DHT22;7603;49.432;11.418;2023-04-08T07:45:11;6.20;99.90
15013;DHT22;7603;49.432;11.418;2023-04-08T07:47:37;6.10;99.90
15013;DHT22;7603;49.432;11.418;2023-04-08T07:50:03;6.10;99.90
15013;DHT22;7603;49.432;11.418;2023-04-08T07:52:32;6.10;99.90
15013;DHT22;7603;49.432;11.418;2023-04-08T07:54:58;6.10;99.90
15013;DHT22;7603;49.432;11.418;2023-04-08T07:57:24;6.10;99.90
15013;DHT22;7603;49.432;11.418;2023-04-08T07:59:50;6.00;99.90
15013;DHT22;7603;49.432;11.418;2023-04-08T08:02:16;6.10;99.90
15013;DHT22;7603;49.432;11.418;2023-04-08T08:04:41;6.10;99.90
15013;DHT22;7603;49.432;11.418;2023-04-08T08:07:07;6.20;99.90
15013;DHT22;7603;49.432;11.418;2023-04-08T08:09:32;6.20;99.90
15013;DHT22;7603;49.432;11.418;2023-04-08T08:11:58;6.30;99.90
15013;DHT22;7603;49.432;11.418;2023-04-08T08:14:24;6.20;99.90
15013;DHT22;7603;49.432;11.418;2023-04-08T08:16:51;6.30;99.90
15013;DHT22;7603;49.432;11.418;2023-04-08T08:19:18;6.40;99.90
15013;DHT22;7603;49.432;11.418;2023-04-08T08:21:44;6.50;99.90
15013;DHT22;7603;49.432;11.418;2023-04-08T08:24:10;6.60;99.90
15013;DHT22;7603;49.432;11.418;2023-04-08T08:26:36;6.60;99.90
15013;DHT22;7603;49.432;11.418;2023-04-08T08:29:01;6.80;99.90
15013;DHT22;7603;49.432;11.418;2023-04-08T08:31:27;6.90;99.90
15013;DHT22;7603;49.432;11.418;2023-04-08T08:33:52;7.00;99.90
15013;DHT22;7603;49.432;11.418;2023-04-08T08:36:18;7.20;99.90
15013;DHT22;7603;49.432;11.418;2023-04-08T08:38:44;7.30;99.90
15013;DHT22;7603;49.432;11.418;2023-04-08T08:41:10;7.40;99.90
15013;DHT22;7603;49.432;11.418;2023-04-08T08:43:36;7.50;99.90
15013;DHT22;7603;49.432;11.418;2023-04-08T08:46:02;7.70;99.90
15013;DHT22;7603;49.432;11.418;2023-04-08T08:48:28;7.70;99.90
15013;DHT22;7603;49.432;11.418;2023-04-08T08:50:53;7.90;99.90
15013;DHT22;7603;49.432;11.418;2023-04-08T08:53:19;8.00;99.90
15013;DHT22;7603;49.432;11.418;2023-04-08T08:55:47;8.10;99.90
15013;DHT22;7603;49.432;11.418;2023-04-08T08:58:13;8.20;99.90
15013;DHT22;7603;49.432;11.418;2023-04-08T09:00:40;8.40;99.90
15013;DHT22;7603;49.432;11.418;2023-04-08T09:05:57;8.50;99.90
15013;DHT22;7603;49.432;11.418;2023-04-08T09:08:36;8.50;99.90
15013;DHT22;7603;49.432;11.418;2023-04-08T09:11:19;8.50;99.90
15013;DHT22;7603;49.432;11.418;2023-04-08T09:13:48;8.60;99.90
15013;DHT22;7603;49.432;11.418;2023-04-08T09:16:17;8.60;99.90
15013;DHT22;7603;49.432;11.418;2023-04-08T09:18:44;8.60;99.90
15013;DHT22;7603;49.432;11.418;2023-04-08T09:21:12;8.60;99.90
15013;DHT22;7603;49.432;11.418;2023-04-08T09:23:46;8.60;99.90
15013;DHT22;7603;49.432;11.418;2023-04-08T09:26:13;8.60;99.90
15013;DHT22;7603;49.432;11.418;2023-04-08T09:28:40;8.70;99.90
15013;DHT22;7603;49.432;11.418;2023-04-08T09:31:26;8.70;99.90
15013;DHT22;7603;49.432;11.418;2023-04-08T09:33:57;8.70;99.90
15013;DHT22;7603;49.432;11.418;2023-04-08T09:36:24;8.70;99.90
15013;DHT22;7603;49.432;11.418;2023-04-08T09:38:52;8.60;99.90
15013;DHT22;7603;49.432;11.418;2023-04-08T09:41:19;8.60;99.90
15013;DHT22;7603;49.432;11.418;2023-04-08T09:43:55;8.50;99.90
15013;DHT22;7603;49.432;11.418;2023-04-08T09:49:26;8.40;99.90
15013;DHT22;7603;49.432;11.418;2023-04-08T09:52:07;8.40;99.90
15013;DHT22;7603;49.432;11.418;2023-04-08T09:54:47;8.40;99.90
15013;DHT22;7603;49.432;11.418;2023-04-08T09:57:21;8.50;99.90
15013;DHT22;7603;49.432;11.418;2023-04-08T10:00:02;8.50;99.90
15013;DHT22;7603;49.432;11.418;2023-04-08T10:02:29;8.50;99.90
15013;DHT22;7603;49.432;11.418;2023-04-08T10:04:59;8.60;99.90
15013;DHT22;7603;49.432;11.418;2023-04-08T10:07:25;8.80;99.90
15013;DHT22;7603;49.432;11.418;2023-04-08T10:09:51;8.80;99.90
15013;DHT22;7603;49.432;11.418;2023-04-08T10:12:17;8.90;99.90
15013;DHT22;7603;49.432;11.418;2023-04-08T10:17:51;9.40;99.90
15013;DHT22;7603;49.432;11.418;2023-04-08T10:23:01;10.40;99.90
15013;DHT22;7603;49.432;11.418;2023-04-08T10:25:37;11.10;99.90
15013;DHT22;7603;49.432;11.418;2023-04-08T10:35:54;12.10;99.90
15013;DHT22;7603;49.432;11.418;2023-04-08T10:38:23;12.10;99.90
15013;DHT22;7603;49.432;11.418;2023-04-08T10:40:49;12.10;99.90
15013;DHT22;7603;49.432;11.418;2023-04-08T10:43:16;12.10;99.90
15013;DHT22;7603;49.432;11.418;2023-04-08T10:45:42;12.00;99.90
15013;DHT22;7603;49.432;11.418;2023-04-08T10:48:22;11.90;99.90
15013;DHT22;7603;49.432;11.418;2023-04-08T10:53:26;11.60;99.90
15013;DHT22;7603;49.432;11.418;2023-04-08T10:55:53;11.50;99.90
15013;DHT22;7603;49.432;11.418;2023-04-08T10:58:18;11.50;99.90
15013;DHT22;7603;49.432;11.418;2023-04-08T11:00:44;11.40;99.90
15013;DHT22;7603;49.432;11.418;2023-04-08T11:03:10;11.30;99.90
15013;DHT22;7603;49.432;11.418;2023-04-08T11:05:37;11.20;99.90
15013;DHT22;7603;49.432;11.418;2023-04-08T11:08:04;11.00;99.90
15013;DHT22;7603;49.432;11.418;2023-04-08T11:10:30;10.90;99.90
15013;DHT22;7603;49.432;11.418;2023-04-08T11:12:56;10.80;99.90
15013;DHT22;7603;49.432;11.418;2023-04-08T11:15:28;10.70;99.90
15013;DHT22;7603;49.432;11.418;2023-04-08T11:17:54;10.70;99.90
15013;DHT22;7603;49.432;11.418;2023-04-08T11:20:21;10.70;99.90
15013;DHT22;7603;49.432;11.418;2023-04-08T11:22:46;10.60;99.90
15013;DHT22;7603;49.432;11.418;2023-04-08T11:25:13;10.70;99.90
15013;DHT22;7603;49.432;11.418;2023-04-08T11:27:38;10.70;99.90
15013;DHT22;7603;49.432;11.418;2023-04-08T11:30:06;11.00;99.90
15013;DHT22;7603;49.432;11.418;2023-04-08T11:32:34;11.50;99.90
15013;DHT22;7603;49.432;11.418;2023-04-08T11:35:00;12.00;99.90
15013;DHT22;7603;49.432;11.418;2023-04-08T11:37:35;12.40;99.90
15013;DHT22;7603;49.432;11.418;2023-04-08T11:40:00;12.80;99.90
15013;DHT22;7603;49.432;11.418;2023-04-08T11:42:26;13.00;99.90
15013;DHT22;7603;49.432;11.418;2023-04-08T11:44:52;13.10;99.90
15013;DHT22;7603;49.432;11.418;2023-04-08T11:47:18;12.80;99.90
15013;DHT22;7603;49.432;11.418;2023-04-08T11:49:46;12.40;99.90
15013;DHT22;7603;49.432;11.418;2023-04-08T11:52:12;12.10;99.90
15013;DHT22;7603;49.432;11.418;2023-04-08T11:54:41;11.90;99.90
15013;DHT22;7603;49.432;11.418;2023-04-08T11:57:07;11.80;99.90
15013;DHT22;7603;49.432;11.418;2023-04-08T11:59:37;11.80;99.90
15013;DHT22;7603;49.432;11.418;2023-04-08T12:02:03;12.00;99.90
15013;DHT22;7603;49.432;11.418;2023-04-08T12:04:29;12.20;99.90
15013;DHT22;7603;49.432;11.418;2023-04-08T12:06:55;12.60;99.90
15013;DHT22;7603;49.432;11.418;2023-04-08T12:09:21;12.70;99.90
15013;DHT22;7603;49.432;11.418;2023-04-08T12:11:47;13.00;99.90
15013;DHT22;7603;49.432;11.418;2023-04-08T12:14:12;13.10;99.90
15013;DHT22;7603;49.432;11.418;2023-04-08T12:16:38;13.10;99.90
15013;DHT22;7603;49.432;11.418;2023-04-08T12:19:03;13.10;99.90
15013;DHT22;7603;49.432;11.418;2023-04-08T12:21:30;13.00;99.90
15013;DHT22;7603;49.432;11.418;2023-04-08T12:23:56;12.70;99.90
15013;DHT22;7603;49.432;11.418;2023-04-08T12:26:22;12.40;99.90
15013;DHT22;7603;49.432;11.418;2023-04-08T12:28:48;12.10;99.90
15013;DHT22;7603;49.432;11.418;2023-04-08T12:31:14;11.80;99.90
15013;DHT22;7603;49.432;11.418;2023-04-08T12:33:39;11.60;99.90
15013;DHT22;7603;49.432;11.418;2023-04-08T12:36:05;11.30;99.90
15013;DHT22;7603;49.432;11.418;2023-04-08T12:38:31;11.00;99.90
15013;DHT22;7603;49.432;11.418;2023-04-08T12:40:58;10.70;99.90
15013;DHT22;7603;49.432;11.418;2023-04-08T12:43:23;10.60;99.90
15013;DHT22;7603;49.432;11.418;2023-04-08T12:45:49;10.40;99.90
15013;DHT22;7603;49.432;11.418;2023-04-08T12:48:15;10.20;99.90
15013;DHT22;7603;49.432;11.418;2023-04-08T12:50:41;10.10;99.90
15013;DHT22;7603;49.432;11.418;2023-04-08T12:53:06;9.90;99.90
15013;DHT22;7603;49.432;11.418;2023-04-08T12:55:32;9.80;99.90
15013;DHT22;7603;49.432;11.418;2023-04-08T12:57:58;9.80;99.90
15013;DHT22;7603;49.432;11.418;2023-04-08T13:00:23;9.80;99.90
15013;DHT22;7603;49.432;11.418;2023-04-08T13:02:50;9.90;99.90
15013;DHT22;7603;49.432;11.418;2023-04-08T13:05:16;10.00;99.90
15013;DHT22;7603;49.432;11.418;2023-04-08T13:07:42;10.30;99.90
15013;DHT22;7603;49.432;11.418;2023-04-08T13:10:08;10.60;99.90
15013;DHT22;7603;49.432;11.418;2023-04-08T13:12:34;10.90;99.90
15013;DHT22;7603;49.432;11.418;2023-04-08T13:15:00;11.30;99.90
15013;DHT22;7603;49.432;11.418;2023-04-08T13:17:26;12.00;99.90
15013;DHT22;7603;49.432;11.418;2023-04-08T13:19:52;12.60;99.90
15013;DHT22;7603;49.432;11.418;2023-04-08T13:22:18;14.20;99.90
15013;DHT22;7603;49.432;11.418;2023-04-08T13:24:43;15.90;99.90
15013;DHT22;7603;49.432;11.418;2023-04-08T13:27:09;16.90;99.90
15013;DHT22;7603;49.432;11.418;2023-04-08T13:29:34;16.80;99.90
15013;DHT22;7603;49.432;11.418;2023-04-08T13:32:00;16.30;99.90
15013;DHT22;7603;49.432;11.418;2023-04-08T13:34:26;15.60;99.90
15013;DHT22;7603;49.432;11.418;2023-04-08T13:36:51;15.00;99.90
15013;DHT22;7603;49.432;11.418;2023-04-08T13:39:17;14.40;99.90
15013;DHT22;7603;49.432;11.418;2023-04-08T13:41:44;13.80;99.90
15013;DHT22;7603;49.432;11.418;2023-04-08T13:44:09;13.50;99.90
15013;DHT22;7603;49.432;11.418;2023-04-08T13:46:35;13.10;99.90
15013;DHT22;7603;49.432;11.418;2023-04-08T13:49:01;12.60;99.90
15013;DHT22;7603;49.432;11.418;2023-04-08T13:51:27;12.30;99.90
15013;DHT22;7603;49.432;11.418;2023-04-08T13:53:53;12.10;99.90
15013;DHT22;7603;49.432;11.418;2023-04-08T13:56:19;12.00;99.90
15013;DHT22;7603;49.432;11.418;2023-04-08T13:58:45;11.80;99.90
15013;DHT22;7603;49.432;11.418;2023-04-08T14:01:11;11.80;99.90
15013;DHT22;7603;49.432;11.418;2023-04-08T14:03:37;12.00;99.90
15013;DHT22;7603;49.432;11.418;2023-04-08T14:06:02;12.30;99.90
15013;DHT22;7603;49.432;11.418;2023-04-08T14:08:28;12.70;99.90
15013;DHT22;7603;49.432;11.418;2023-04-08T14:10:57;13.30;99.90
15013;DHT22;7603;49.432;11.418;2023-04-08T14:13:22;14.30;99.90
15013;DHT22;7603;49.432;11.418;2023-04-08T14:15:48;15.30;99.90
15013;DHT22;7603;49.432;11.418;2023-04-08T14:18:14;15.80;99.90
15013;DHT22;7603;49.432;11.418;2023-04-08T14:20:43;15.80;99.70
15013;DHT22;7603;49.432;11.418;2023-04-08T14:23:09;15.30;98.90
15013;DHT22;7603;49.432;11.418;2023-04-08T14:25:35;14.80;99.90
15013;DHT22;7603;49.432;11.418;2023-04-08T14:28:01;14.20;99.90
15013;DHT22;7603;49.432;11.418;2023-04-08T14:30:26;13.60;99.90
15013;DHT22;7603;49.432;11.418;2023-04-08T14:32:53;13.00;99.90
15013;DHT22;7603;49.432;11.418;2023-04-08T14:35:18;12.50;99.90
15013;DHT22;7603;49.432;11.418;2023-04-08T14:37:44;12.10;99.90
15013;DHT22;7603;49.432;11.418;2023-04-08T14:40:10;11.70;99.90
15013;DHT22;7603;49.432;11.418;2023-04-08T14:42:35;11.40;99.90
15013;DHT22;7603;49.432;11.418;2023-04-08T14:45:01;11.10;99.90
15013;DHT22;7603;49.432;11.418;2023-04-08T14:47:28;10.90;99.90
15013;DHT22;7603;49.432;11.418;2023-04-08T14:49:54;10.70;99.90
15013;DHT22;7603;49.432;11.418;2023-04-08T14:52:19;10.70;99.90
15013;DHT22;7603;49.432;11.418;2023-04-08T14:54:45;10.50;99.90
15013;DHT22;7603;49.432;11.418;2023-04-08T14:57:12;10.50;99.90
15013;DHT22;7603;49.432;11.418;2023-04-08T14:59:37;10.40;99.90
15013;DHT22;7603;49.432;11.418;2023-04-08T15:02:03;10.50;99.90
15013;DHT22;7603;49.432;11.418;2023-04-08T15:04:29;10.50;99.90
15013;DHT22;7603;49.432;11.418;2023-04-08T15:06:54;10.60;99.90
15013;DHT22;7603;49.432;11.418;2023-04-08T15:09:21;10.70;99.90
15013;DHT22;7603;49.432;11.418;2023-04-08T15:11:47;10.90;99.90
15013;DHT22;7603;49.432;11.418;2023-04-08T15:14:12;10.90;99.90
15013;DHT22;7603;49.432;11.418;2023-04-08T15:16:38;11.00;99.90
15013;DHT22;7603;49.432;11.418;2023-04-08T15:19:03;11.10;99.90
15013;DHT22;7603;49.432;11.418;2023-04-08T15:21:30;11.20;99.90
15013;DHT22;7603;49.432;11.418;2023-04-08T15:23:56;11.30;99.90
15013;DHT22;7603;49.432;11.418;2023-04-08T15:26:21;11.40;99.90
15013;DHT22;7603;49.432;11.418;2023-04-08T15:28:47;11.50;99.90
15013;DHT22;7603;49.432;11.418;2023-04-08T15:31:13;11.60;99.90
15013;DHT22;7603;49.432;11.418;2023-04-08T15:33:38;11.80;99.90
15013;DHT22;7603;49.432;11.418;2023-04-08T15:36:06;12.00;99.90
15013;DHT22;7603;49.432;11.418;2023-04-08T15:38:32;12.20;99.90
15013;DHT22;7603;49.432;11.418;2023-04-08T15:41:00;12.20;99.90
15013;DHT22;7603;49.432;11.418;2023-04-08T15:43:26;12.30;99.90
15013;DHT22;7603;49.432;11.418;2023-04-08T15:45:52;12.40;99.90
15013;DHT22;7603;49.432;11.418;2023-04-08T15:48:18;12.50;99.90
15013;DHT22;7603;49.432;11.418;2023-04-08T15:50:43;12.50;99.90
15013;DHT22;7603;49.432;11.418;2023-04-08T15:53:09;12.50;99.90
15013;DHT22;7603;49.432;11.418;2023-04-08T15:55:38;12.40;99.90
15013;DHT22;7603;49.432;11.418;2023-04-08T15:58:05;12.30;99.90
15013;DHT22;7603;49.432;11.418;2023-04-08T16:00:31;12.10;99.90